Startpagina
METAR-TAF:

METAR-TAF

Vliegvelden :

Beiroet, Libanon

breedte: 33-49N, lengte: 035-29E, hoogte: 29 m

Actueel weer

Dit bericht is 15 minuten geleden gemaakt, om 21:00 UTC
Wind 5 kt uit het zuidzuidoosten
Temperatuur 27°C
Vochtigheid 70%
Druk 1009 hPa
Zicht 10 km of meer
Verspreide wolken op 2800 ft

METAR: OLBA 212100Z 16005KT 9999 SCT028 27/21 Q1009 NOSIG

Tijdstip: 00:15 (21:15 UTC)

Verwachting

Dit bericht is 11 uur en het 15 minuten geleden gemaakt, om 10:00 UTC
Verwachting geldig van 21 om 12 UTC tot 22 om 18 UTC
Wind 10 kt uit het zuidwesten met uitschieters tot 20 kt
Zicht: 8000 m
Verspreide wolken op 2600 ft
Wijzigt naar
van 21 om 20 UTC tot 21 om 23 UTC
Wind 6 kt uit het zuidzuidoosten
Weinig wolken op 3000 ft
Wijzigt naar
van 22 om 07 UTC tot 22 om 09 UTC
Wind 20 kt uit het westzuidwesten
Zicht: 8000 m
Verspreide wolken op 2600 ft

TAF: OLBA 211000Z 2112/2218 23010G20KT 8000 SCT026 BECMG 2120/2123 16006KT FEW030 BECMG 2207/2209 24020KT 8000 SCT026

Waarnemingen en weersverwachtingen van meer dan 4000 vliegvelden (METAR en TAF).

De beschikbare stations zijn de gele en rode punten op de kaart.

Ga met uw muis naar het station om de naam te zien.

Klik dan om waarnemingen en weersverwachtingen te zien.

kaart wijzigen: klik op de groene knoppen met een zwart kruis om in te zoomen, op de groene knop met een streepje om uit te zoomen of op de groene pijlen voor aangrenzende kaarten.


METAR-TAF: